This is the latest recevied weather packets stored in our database for station/object KO5MO-11. If no packets are shown the sender has not sent any weather packets the latest 10 day(s).
| Time | Temp. | Humidity | Pressure | Rain* | Wind** | Luminosity | Snow |
|---|---|---|---|---|---|---|---|
| 1777537236 | 25° C | 35% | 1009.4 hPa | - | - | 776 W/m² | - |
| 1777536636 | 26.11° C | 33% | 1009.5 hPa | - | - | 793 W/m² | - |
| 1777536036 | 24.44° C | 36% | 1009.6 hPa | - | - | 766 W/m² | - |
| 1777535436 | 24.44° C | 35% | 1009.6 hPa | - | - | 765 W/m² | - |
| 1777534835 | 25° C | 35% | 1009.5 hPa | - | - | 772 W/m² | - |
| 1777534236 | 25° C | 35% | 1009.8 hPa | - | - | 771 W/m² | - |
| 1777533636 | 26.11° C | 33% | 1010.1 hPa | - | - | 793 W/m² | - |
| 1777533036 | 23.89° C | 35% | 1010.1 hPa | - | - | 759 W/m² | - |
| 1777532436 | 24.44° C | 34% | 1010.1 hPa | - | - | 768 W/m² | - |
| 1777531836 | 25° C | 33% | 1009.9 hPa | - | - | 777 W/m² | - |
| 1777531236 | 25.56° C | 34% | 1009.7 hPa | - | - | 787 W/m² | - |
| 1777530636 | 25° C | 35% | 1009.7 hPa | - | - | 773 W/m² | - |
| 1777530035 | 24.44° C | 36% | 1009.8 hPa | - | - | 767 W/m² | - |
| 1777529436 | 25° C | 33% | 1009.9 hPa | - | - | 774 W/m² | - |
| 1777528836 | 26.11° C | 34% | 1009.9 hPa | - | - | 793 W/m² | - |
| 1777528236 | 23.89° C | 35% | 1010.1 hPa | - | - | 753 W/m² | - |
| 1777527636 | 25° C | 33% | 1010 hPa | - | - | 774 W/m² | - |
| 1777527036 | 26.11° C | 34% | 1010 hPa | - | - | 791 W/m² | - |
| 1777526436 | 23.89° C | 35% | 1010.1 hPa | - | - | 750 W/m² | - |
| 1777525836 | 25° C | 34% | 1010 hPa | - | - | 775 W/m² | - |
| 1777525236 | 26.11° C | 34% | 1009.9 hPa | - | - | 791 W/m² | - |
| 1777524636 | 23.89° C | 35% | 1010.1 hPa | - | - | 755 W/m² | - |
| 1777524036 | 25° C | 34% | 1010 hPa | - | - | 776 W/m² | - |
| 1777523436 | 25.56° C | 35% | 1009.9 hPa | - | - | 789 W/m² | - |
| 1777522835 | 23.89° C | 35% | 1009.9 hPa | - | - | 753 W/m² | - |
* Rain since midnight (hover to see other rain measurements)
** Current wind speed in m/s (hover to see current wind gust speed)